sensor_id;sensor_type;location;lat;lon;timestamp;pressure;altitude;pressure_sealevel;temperature;humidity
58018;BME280;43810;50.860;19.226;2023-06-14T00:00:40;98566.75;;;12.53;88.34
58018;BME280;43810;50.860;19.226;2023-06-14T00:03:26;98568.03;;;12.59;87.92
58018;BME280;43810;50.860;19.226;2023-06-14T00:05:52;98563.44;;;12.44;88.43
58018;BME280;43810;50.860;19.226;2023-06-14T00:08:18;98572.47;;;12.39;89.04
58018;BME280;43810;50.860;19.226;2023-06-14T00:10:44;98574.03;;;12.40;88.96
58018;BME280;43810;50.860;19.226;2023-06-14T00:13:11;98575.47;;;12.38;89.23
58018;BME280;43810;50.860;19.226;2023-06-14T00:15:36;98582.03;;;12.40;89.61
58018;BME280;43810;50.860;19.226;2023-06-14T00:18:03;98573.19;;;12.52;89.31
58018;BME280;43810;50.860;19.226;2023-06-14T00:20:31;98569.69;;;12.64;88.68
58018;BME280;43810;50.860;19.226;2023-06-14T00:22:59;98569.69;;;12.64;88.30
58018;BME280;43810;50.860;19.226;2023-06-14T00:25:25;98579.03;;;12.57;88.20
58018;BME280;43810;50.860;19.226;2023-06-14T00:27:52;98568.28;;;12.54;88.64
58018;BME280;43810;50.860;19.226;2023-06-14T00:30:18;98568.69;;;12.40;88.78
58018;BME280;43810;50.860;19.226;2023-06-14T00:32:44;98574.94;;;12.32;89.42
58018;BME280;43810;50.860;19.226;2023-06-14T00:35:10;98573.75;;;12.30;89.40
58018;BME280;43810;50.860;19.226;2023-06-14T00:37:37;98578.31;;;12.17;90.08
58018;BME280;43810;50.860;19.226;2023-06-14T00:40:03;98572.22;;;12.16;90.16
58018;BME280;43810;50.860;19.226;2023-06-14T00:42:30;98571.69;;;12.11;90.22
58018;BME280;43810;50.860;19.226;2023-06-14T00:44:56;98573.53;;;12.22;89.95
58018;BME280;43810;50.860;19.226;2023-06-14T00:47:23;98568.41;;;12.30;90.00
58018;BME280;43810;50.860;19.226;2023-06-14T00:49:53;98569.84;;;12.27;89.61
58018;BME280;43810;50.860;19.226;2023-06-14T00:52:19;98564.88;;;12.25;90.17
58018;BME280;43810;50.860;19.226;2023-06-14T00:54:46;98564.97;;;12.29;89.77
58018;BME280;43810;50.860;19.226;2023-06-14T00:57:12;98565.31;;;12.28;90.12
58018;BME280;43810;50.860;19.226;2023-06-14T00:59:49;98566.59;;;12.34;89.72
58018;BME280;43810;50.860;19.226;2023-06-14T01:02:16;98557.31;;;12.28;89.55
58018;BME280;43810;50.860;19.226;2023-06-14T01:04:46;98555.75;;;12.27;89.91
58018;BME280;43810;50.860;19.226;2023-06-14T01:12:37;98565.88;;;12.21;89.61
58018;BME280;43810;50.860;19.226;2023-06-14T01:15:04;98560.25;;;12.10;90.25
58018;BME280;43810;50.860;19.226;2023-06-14T01:17:31;98561.91;;;12.15;90.40
58018;BME280;43810;50.860;19.226;2023-06-14T01:20:02;98556.88;;;12.25;90.12
58018;BME280;43810;50.860;19.226;2023-06-14T01:22:28;98561.88;;;12.27;89.82
58018;BME280;43810;50.860;19.226;2023-06-14T01:24:54;98565.31;;;12.28;89.74
58018;BME280;43810;50.860;19.226;2023-06-14T01:27:24;98558.56;;;12.18;89.97
58018;BME280;43810;50.860;19.226;2023-06-14T01:29:54;98555.13;;;12.17;89.94
58018;BME280;43810;50.860;19.226;2023-06-14T01:32:24;98556.88;;;12.25;89.99
58018;BME280;43810;50.860;19.226;2023-06-14T01:34:52;98562.88;;;12.22;89.62
58018;BME280;43810;50.860;19.226;2023-06-14T01:37:19;98558.59;;;12.34;89.95
58018;BME280;43810;50.860;19.226;2023-06-14T01:39:47;98554.50;;;12.36;89.30
58018;BME280;43810;50.860;19.226;2023-06-14T01:42:15;98560.94;;;12.35;89.64
58018;BME280;43810;50.860;19.226;2023-06-14T01:44:42;98558.72;;;12.37;89.72
58018;BME280;43810;50.860;19.226;2023-06-14T01:47:10;98561.03;;;12.39;89.77
58018;BME280;43810;50.860;19.226;2023-06-14T01:49:36;98557.09;;;12.48;89.28
58018;BME280;43810;50.860;19.226;2023-06-14T01:52:02;98563.09;;;12.45;89.17
58018;BME280;43810;50.860;19.226;2023-06-14T01:54:27;98546.44;;;12.48;89.33
58018;BME280;43810;50.860;19.226;2023-06-14T01:56:54;98550.38;;;12.39;89.35
58018;BME280;43810;50.860;19.226;2023-06-14T01:59:20;98548.09;;;12.25;89.49
58018;BME280;43810;50.860;19.226;2023-06-14T02:01:46;98545.50;;;12.41;88.95
58018;BME280;43810;50.860;19.226;2023-06-14T02:04:12;98543.94;;;12.40;88.61
58018;BME280;43810;50.860;19.226;2023-06-14T02:06:38;98554.78;;;12.47;88.78
58018;BME280;43810;50.860;19.226;2023-06-14T02:09:03;98542.19;;;12.32;88.81
58018;BME280;43810;50.860;19.226;2023-06-14T02:11:30;98550.28;;;12.35;89.08
58018;BME280;43810;50.860;19.226;2023-06-14T02:13:55;98542.13;;;12.44;88.74
58018;BME280;43810;50.860;19.226;2023-06-14T02:16:21;98539.72;;;12.39;88.85
58018;BME280;43810;50.860;19.226;2023-06-14T02:18:47;98549.41;;;12.31;89.38
58018;BME280;43810;50.860;19.226;2023-06-14T02:21:14;98540.22;;;12.29;89.45
58018;BME280;43810;50.860;19.226;2023-06-14T02:23:40;98554.84;;;12.35;89.44
58018;BME280;43810;50.860;19.226;2023-06-14T02:26:06;98557.72;;;12.42;89.61
58018;BME280;43810;50.860;19.226;2023-06-14T02:28:31;98556.38;;;12.36;89.99
58018;BME280;43810;50.860;19.226;2023-06-14T02:30:57;98552.06;;;12.31;90.11
58018;BME280;43810;50.860;19.226;2023-06-14T02:33:23;98555.44;;;12.28;90.31
58018;BME280;43810;50.860;19.226;2023-06-14T02:35:50;98553.38;;;12.09;90.72
58018;BME280;43810;50.860;19.226;2023-06-14T02:38:18;98563.69;;;12.11;90.91
58018;BME280;43810;50.860;19.226;2023-06-14T02:40:44;98557.50;;;12.07;91.13
58018;BME280;43810;50.860;19.226;2023-06-14T02:43:09;98565.81;;;12.05;91.51
58018;BME280;43810;50.860;19.226;2023-06-14T02:45:35;98567.13;;;12.11;91.28
58018;BME280;43810;50.860;19.226;2023-06-14T02:48:01;98567.47;;;12.10;90.86
58018;BME280;43810;50.860;19.226;2023-06-14T02:50:27;98549.25;;;12.12;90.99
58018;BME280;43810;50.860;19.226;2023-06-14T02:52:53;98564.13;;;12.13;90.18
58018;BME280;43810;50.860;19.226;2023-06-14T02:55:21;98562.72;;;12.03;90.63
58018;BME280;43810;50.860;19.226;2023-06-14T02:57:47;98561.75;;;11.96;91.29
58018;BME280;43810;50.860;19.226;2023-06-14T03:00:14;98560.53;;;11.93;91.63
58018;BME280;43810;50.860;19.226;2023-06-14T03:02:39;98563.41;;;11.88;91.73
58018;BME280;43810;50.860;19.226;2023-06-14T03:05:06;98562.94;;;11.98;90.90
58018;BME280;43810;50.860;19.226;2023-06-14T03:07:32;98561.28;;;12.06;90.30
58018;BME280;43810;50.860;19.226;2023-06-14T03:09:59;98560.72;;;12.00;90.67
58018;BME280;43810;50.860;19.226;2023-06-14T03:12:25;98562.09;;;11.94;90.59
58018;BME280;43810;50.860;19.226;2023-06-14T03:14:52;98554.19;;;11.98;90.39
58018;BME280;43810;50.860;19.226;2023-06-14T03:17:18;98561.28;;;12.06;89.86
58018;BME280;43810;50.860;19.226;2023-06-14T03:19:45;98567.28;;;12.03;89.43
58018;BME280;43810;50.860;19.226;2023-06-14T03:22:10;98571.63;;;11.95;89.99
58018;BME280;43810;50.860;19.226;2023-06-14T03:24:37;98563.06;;;12.02;90.02
58018;BME280;43810;50.860;19.226;2023-06-14T03:27:03;98568.22;;;12.10;90.00
58018;BME280;43810;50.860;19.226;2023-06-14T03:29:29;98569.09;;;12.27;88.72
58018;BME280;43810;50.860;19.226;2023-06-14T03:31:57;98571.50;;;12.04;89.76
58018;BME280;43810;50.860;19.226;2023-06-14T03:34:24;98568.50;;;12.05;89.83
58018;BME280;43810;50.860;19.226;2023-06-14T03:36:50;98568.03;;;12.03;90.12
58018;BME280;43810;50.860;19.226;2023-06-14T03:39:16;98568.50;;;12.05;89.50
58018;BME280;43810;50.860;19.226;2023-06-14T03:41:41;98568.28;;;11.98;90.04
58018;BME280;43810;50.860;19.226;2023-06-14T03:44:07;98583.09;;;12.11;90.13
58018;BME280;43810;50.860;19.226;2023-06-14T03:46:33;98574.25;;;12.07;89.72
58018;BME280;43810;50.860;19.226;2023-06-14T03:48:59;98580.69;;;12.06;89.89
58018;BME280;43810;50.860;19.226;2023-06-14T03:51:25;98583.78;;;12.08;89.93
58018;BME280;43810;50.860;19.226;2023-06-14T03:53:51;98577.38;;;11.97;90.13
58018;BME280;43810;50.860;19.226;2023-06-14T03:56:17;98575.69;;;12.05;89.76
58018;BME280;43810;50.860;19.226;2023-06-14T03:58:43;98573.50;;;11.95;89.76
58018;BME280;43810;50.860;19.226;2023-06-14T04:01:09;98590.22;;;12.07;89.84
58018;BME280;43810;50.860;19.226;2023-06-14T04:03:35;98583.72;;;12.20;89.04
58018;BME280;43810;50.860;19.226;2023-06-14T04:06:01;98577.06;;;12.27;89.20
58018;BME280;43810;50.860;19.226;2023-06-14T04:08:26;98583.03;;;12.36;88.76
58018;BME280;43810;50.860;19.226;2023-06-14T04:10:52;98596.34;;;12.36;88.41
58018;BME280;43810;50.860;19.226;2023-06-14T04:13:18;98597.00;;;12.33;88.60
58018;BME280;43810;50.860;19.226;2023-06-14T04:15:44;98589.78;;;12.33;88.42
58018;BME280;43810;50.860;19.226;2023-06-14T04:18:12;98590.56;;;12.34;89.10
58018;BME280;43810;50.860;19.226;2023-06-14T04:20:38;98589.69;;;12.42;88.64
58018;BME280;43810;50.860;19.226;2023-06-14T04:23:18;98587.44;;;12.44;87.92
58018;BME280;43810;50.860;19.226;2023-06-14T04:25:44;98587.28;;;12.24;88.49
58018;BME280;43810;50.860;19.226;2023-06-14T04:28:15;98592.38;;;12.30;88.98
58018;BME280;43810;50.860;19.226;2023-06-14T04:30:41;98600.22;;;12.38;88.89
58018;BME280;43810;50.860;19.226;2023-06-14T04:33:08;98598.28;;;12.51;88.41
58018;BME280;43810;50.860;19.226;2023-06-14T04:35:35;98586.31;;;12.45;88.85
58018;BME280;43810;50.860;19.226;2023-06-14T04:38:03;98589.69;;;12.42;88.92
58018;BME280;43810;50.860;19.226;2023-06-14T04:40:35;98594.78;;;12.35;89.46
58018;BME280;43810;50.860;19.226;2023-06-14T04:43:11;98584.34;;;12.42;89.23
58018;BME280;43810;50.860;19.226;2023-06-14T04:45:37;98588.97;;;12.45;89.57
58018;BME280;43810;50.860;19.226;2023-06-14T04:48:05;98587.03;;;12.57;88.94
58018;BME280;43810;50.860;19.226;2023-06-14T04:50:32;98589.38;;;12.59;89.01
58018;BME280;43810;50.860;19.226;2023-06-14T04:52:58;98591.97;;;12.71;89.12
58018;BME280;43810;50.860;19.226;2023-06-14T04:55:25;98603.47;;;12.59;88.78
58018;BME280;43810;50.860;19.226;2023-06-14T04:57:52;98602.25;;;12.57;89.46
58018;BME280;43810;50.860;19.226;2023-06-14T05:00:22;98597.81;;;12.61;89.54
58018;BME280;43810;50.860;19.226;2023-06-14T05:02:49;98597.31;;;12.71;89.06
58018;BME280;43810;50.860;19.226;2023-06-14T05:05:17;98593.63;;;12.48;89.73
58018;BME280;43810;50.860;19.226;2023-06-14T05:07:43;98593.81;;;12.55;90.31
58018;BME280;43810;50.860;19.226;2023-06-14T05:10:09;98594.88;;;12.66;89.33
58018;BME280;43810;50.860;19.226;2023-06-14T05:12:35;98591.88;;;12.68;89.06
58018;BME280;43810;50.860;19.226;2023-06-14T05:15:02;98588.72;;;12.78;89.02
58018;BME280;43810;50.860;19.226;2023-06-14T05:17:28;98580.84;;;12.81;89.15
58018;BME280;43810;50.860;19.226;2023-06-14T05:19:54;98594.31;;;12.73;89.33
58018;BME280;43810;50.860;19.226;2023-06-14T05:22:22;98586.09;;;12.66;90.09
58018;BME280;43810;50.860;19.226;2023-06-14T05:24:47;98586.88;;;12.66;90.31
58018;BME280;43810;50.860;19.226;2023-06-14T05:27:14;98591.63;;;12.73;90.46
58018;BME280;43810;50.860;19.226;2023-06-14T05:29:39;98596.09;;;12.69;89.67
58018;BME280;43810;50.860;19.226;2023-06-14T05:32:06;98597.53;;;12.66;90.05
58018;BME280;43810;50.860;19.226;2023-06-14T05:34:31;98596.63;;;12.74;89.98
58018;BME280;43810;50.860;19.226;2023-06-14T05:36:57;98604.06;;;12.81;90.73
58018;BME280;43810;50.860;19.226;2023-06-14T05:39:24;98612.94;;;12.85;90.71
58018;BME280;43810;50.860;19.226;2023-06-14T05:41:50;98613.72;;;12.85;89.70
58018;BME280;43810;50.860;19.226;2023-06-14T05:44:15;98610.25;;;13.01;89.07
58018;BME280;43810;50.860;19.226;2023-06-14T05:46:41;98612.44;;;13.11;88.48
58018;BME280;43810;50.860;19.226;2023-06-14T05:49:07;98612.78;;;13.09;88.84
58018;BME280;43810;50.860;19.226;2023-06-14T05:51:34;98607.53;;;13.13;88.89
58018;BME280;43810;50.860;19.226;2023-06-14T05:54:00;98611.66;;;13.26;88.12
58018;BME280;43810;50.860;19.226;2023-06-14T05:56:26;98617.88;;;13.30;88.13
58018;BME280;43810;50.860;19.226;2023-06-14T05:58:52;98617.69;;;13.39;87.33
58018;BME280;43810;50.860;19.226;2023-06-14T06:01:18;98622.16;;;13.34;87.78
58018;BME280;43810;50.860;19.226;2023-06-14T06:03:44;98625.44;;;13.28;88.84
58018;BME280;43810;50.860;19.226;2023-06-14T06:06:12;98622.44;;;13.29;89.01
58018;BME280;43810;50.860;19.226;2023-06-14T06:08:38;98626.03;;;13.37;89.06
58018;BME280;43810;50.860;19.226;2023-06-14T06:11:04;98622.94;;;13.35;89.09
58018;BME280;43810;50.860;19.226;2023-06-14T06:13:29;98635.16;;;13.36;88.57
58018;BME280;43810;50.860;19.226;2023-06-14T06:15:55;98636.97;;;13.48;88.16
58018;BME280;43810;50.860;19.226;2023-06-14T06:18:21;98623.72;;;13.51;88.82
58018;BME280;43810;50.860;19.226;2023-06-14T06:20:47;98624.81;;;13.34;88.89
58018;BME280;43810;50.860;19.226;2023-06-14T06:23:13;98624.50;;;13.20;89.31
58018;BME280;43810;50.860;19.226;2023-06-14T06:25:39;98631.56;;;13.28;89.71
58018;BME280;43810;50.860;19.226;2023-06-14T06:28:05;98623.91;;;13.43;89.09
58018;BME280;43810;50.860;19.226;2023-06-14T06:30:31;98629.28;;;13.62;88.53
58018;BME280;43810;50.860;19.226;2023-06-14T06:32:57;98634.88;;;13.73;87.40
58018;BME280;43810;50.860;19.226;2023-06-14T06:35:23;98635.56;;;13.85;86.84
58018;BME280;43810;50.860;19.226;2023-06-14T06:37:49;98631.59;;;13.79;87.89
58018;BME280;43810;50.860;19.226;2023-06-14T06:40:15;98627.63;;;13.89;86.59
58018;BME280;43810;50.860;19.226;2023-06-14T06:42:41;98631.53;;;13.76;87.87
58018;BME280;43810;50.860;19.226;2023-06-14T06:45:07;98629.44;;;13.85;86.64
58018;BME280;43810;50.860;19.226;2023-06-14T06:47:33;98637.13;;;14.05;86.38
58018;BME280;43810;50.860;19.226;2023-06-14T06:49:59;98633.25;;;14.19;87.71
58018;BME280;43810;50.860;19.226;2023-06-14T06:52:25;98639.88;;;14.25;89.16
58018;BME280;43810;50.860;19.226;2023-06-14T06:54:51;98636.78;;;14.23;85.44
58018;BME280;43810;50.860;19.226;2023-06-14T06:57:20;98647.47;;;14.23;87.65
58018;BME280;43810;50.860;19.226;2023-06-14T06:59:49;98637.44;;;14.35;86.86
58018;BME280;43810;50.860;19.226;2023-06-14T07:02:15;98642.91;;;14.43;85.44
58018;BME280;43810;50.860;19.226;2023-06-14T07:04:41;98628.53;;;14.51;85.65
58018;BME280;43810;50.860;19.226;2023-06-14T07:07:07;98632.72;;;14.48;85.63
58018;BME280;43810;50.860;19.226;2023-06-14T07:09:35;98642.28;;;14.49;86.71
58018;BME280;43810;50.860;19.226;2023-06-14T07:12:01;98640.75;;;14.48;86.41
58018;BME280;43810;50.860;19.226;2023-06-14T07:14:27;98642.00;;;14.54;85.74
58018;BME280;43810;50.860;19.226;2023-06-14T07:16:52;98644.88;;;14.65;86.14
58018;BME280;43810;50.860;19.226;2023-06-14T07:19:19;98652.53;;;14.66;85.47
58018;BME280;43810;50.860;19.226;2023-06-14T07:21:44;98652.75;;;14.58;84.61
58018;BME280;43810;50.860;19.226;2023-06-14T07:24:10;98653.09;;;14.56;86.03
58018;BME280;43810;50.860;19.226;2023-06-14T07:26:36;98658.38;;;14.53;85.17
58018;BME280;43810;50.860;19.226;2023-06-14T07:29:02;98659.38;;;14.45;85.23
58018;BME280;43810;50.860;19.226;2023-06-14T07:31:28;98667.38;;;14.64;84.76
58018;BME280;43810;50.860;19.226;2023-06-14T07:33:54;98671.13;;;14.78;84.29
58018;BME280;43810;50.860;19.226;2023-06-14T07:36:20;98667.78;;;14.85;82.72
58018;BME280;43810;50.860;19.226;2023-06-14T07:38:46;98666.47;;;14.95;82.64
58018;BME280;43810;50.860;19.226;2023-06-14T07:41:12;98672.88;;;14.90;83.35
58018;BME280;43810;50.860;19.226;2023-06-14T07:43:38;98677.66;;;14.81;83.54
58018;BME280;43810;50.860;19.226;2023-06-14T07:46:04;98684.41;;;14.94;82.73
58018;BME280;43810;50.860;19.226;2023-06-14T07:48:30;98678.28;;;14.74;83.49
58018;BME280;43810;50.860;19.226;2023-06-14T07:50:55;98680.06;;;14.67;84.37
58018;BME280;43810;50.860;19.226;2023-06-14T07:53:21;98681.59;;;14.68;84.76
58018;BME280;43810;50.860;19.226;2023-06-14T07:55:47;98686.38;;;14.78;84.93
58018;BME280;43810;50.860;19.226;2023-06-14T07:58:14;98685.13;;;14.72;84.41
58018;BME280;43810;50.860;19.226;2023-06-14T08:00:40;98681.31;;;14.73;85.22
58018;BME280;43810;50.860;19.226;2023-06-14T08:03:06;98686.94;;;14.87;83.46
58018;BME280;43810;50.860;19.226;2023-06-14T08:05:33;98683.38;;;14.80;83.51
58018;BME280;43810;50.860;19.226;2023-06-14T08:07:59;98683.94;;;14.69;84.95
58018;BME280;43810;50.860;19.226;2023-06-14T08:10:24;98685.41;;;14.67;84.77
58018;BME280;43810;50.860;19.226;2023-06-14T08:12:50;98686.66;;;14.73;84.98
58018;BME280;43810;50.860;19.226;2023-06-14T08:15:17;98688.59;;;14.72;84.79
58018;BME280;43810;50.860;19.226;2023-06-14T08:17:43;98691.53;;;14.67;84.38
58018;BME280;43810;50.860;19.226;2023-06-14T08:20:10;98678.63;;;14.73;84.30
58018;BME280;43810;50.860;19.226;2023-06-14T08:22:36;98674.44;;;14.72;85.48
58018;BME280;43810;50.860;19.226;2023-06-14T08:25:03;98683.78;;;14.82;85.10
58018;BME280;43810;50.860;19.226;2023-06-14T08:27:30;98674.00;;;14.89;85.84
58018;BME280;43810;50.860;19.226;2023-06-14T08:29:56;98683.69;;;14.97;84.82
58018;BME280;43810;50.860;19.226;2023-06-14T08:32:22;98684.53;;;15.01;85.67
58018;BME280;43810;50.860;19.226;2023-06-14T08:34:48;98688.84;;;15.06;85.06
58018;BME280;43810;50.860;19.226;2023-06-14T08:37:14;98693.41;;;15.05;85.62
58018;BME280;43810;50.860;19.226;2023-06-14T08:39:40;98689.41;;;14.96;85.63
58018;BME280;43810;50.860;19.226;2023-06-14T08:42:07;98695.66;;;15.03;85.38
58018;BME280;43810;50.860;19.226;2023-06-14T08:44:34;98697.56;;;15.03;84.40
58018;BME280;43810;50.860;19.226;2023-06-14T08:47:00;98690.16;;;14.96;83.92
58018;BME280;43810;50.860;19.226;2023-06-14T08:49:26;98694.81;;;14.99;83.90
58018;BME280;43810;50.860;19.226;2023-06-14T08:51:57;98707.38;;;14.95;84.33
58018;BME280;43810;50.860;19.226;2023-06-14T08:54:25;98701.31;;;14.79;85.67
58018;BME280;43810;50.860;19.226;2023-06-14T08:56:53;98704.06;;;14.83;86.83
58018;BME280;43810;50.860;19.226;2023-06-14T08:59:28;98711.88;;;14.91;86.41
58018;BME280;43810;50.860;19.226;2023-06-14T09:01:56;98705.81;;;14.56;86.93
58018;BME280;43810;50.860;19.226;2023-06-14T09:04:23;98706.78;;;14.67;89.09
58018;BME280;43810;50.860;19.226;2023-06-14T09:06:51;98716.09;;;14.92;89.09
58018;BME280;43810;50.860;19.226;2023-06-14T09:09:21;98712.41;;;15.00;86.42
58018;BME280;43810;50.860;19.226;2023-06-14T09:11:52;98721.84;;;15.13;87.30
58018;BME280;43810;50.860;19.226;2023-06-14T09:14:23;98725.94;;;15.07;87.13
58018;BME280;43810;50.860;19.226;2023-06-14T09:16:52;98721.66;;;15.03;85.50
58018;BME280;43810;50.860;19.226;2023-06-14T09:19:23;98720.09;;;15.02;86.36
58018;BME280;43810;50.860;19.226;2023-06-14T09:21:49;98726.84;;;15.15;88.93
58018;BME280;43810;50.860;19.226;2023-06-14T09:24:15;98717.94;;;15.49;85.74
58018;BME280;43810;50.860;19.226;2023-06-14T09:26:41;98723.34;;;15.76;84.61
58018;BME280;43810;50.860;19.226;2023-06-14T09:29:07;98721.50;;;15.80;84.81
58018;BME280;43810;50.860;19.226;2023-06-14T09:31:32;98722.94;;;15.51;85.23
58018;BME280;43810;50.860;19.226;2023-06-14T09:34:02;98726.31;;;15.48;83.81
58018;BME280;43810;50.860;19.226;2023-06-14T09:36:31;98723.47;;;15.60;83.11
58018;BME280;43810;50.860;19.226;2023-06-14T09:38:59;98723.88;;;15.62;82.73
58018;BME280;43810;50.860;19.226;2023-06-14T09:41:39;98720.44;;;15.62;84.98
58018;BME280;43810;50.860;19.226;2023-06-14T09:44:07;98721.50;;;15.80;83.89
58018;BME280;43810;50.860;19.226;2023-06-14T09:46:34;98723.88;;;15.85;83.77
58018;BME280;43810;50.860;19.226;2023-06-14T09:49:02;98723.50;;;16.09;81.89
58018;BME280;43810;50.860;19.226;2023-06-14T09:51:28;98730.69;;;16.05;80.53
58018;BME280;43810;50.860;19.226;2023-06-14T09:54:01;98719.00;;;16.17;81.54
58018;BME280;43810;50.860;19.226;2023-06-14T09:56:41;98720.97;;;16.20;80.64
58018;BME280;43810;50.860;19.226;2023-06-14T09:59:09;98726.72;;;16.22;80.07
58018;BME280;43810;50.860;19.226;2023-06-14T10:01:42;98728.81;;;16.36;80.35
58018;BME280;43810;50.860;19.226;2023-06-14T10:04:09;98724.41;;;16.20;80.54
58018;BME280;43810;50.860;19.226;2023-06-14T10:06:37;98723.50;;;16.09;81.98
58018;BME280;43810;50.860;19.226;2023-06-14T10:09:04;98724.28;;;16.13;82.82
58018;BME280;43810;50.860;19.226;2023-06-14T10:11:35;98728.53;;;16.14;82.62
58018;BME280;43810;50.860;19.226;2023-06-14T10:14:02;98725.38;;;16.09;80.63
58018;BME280;43810;50.860;19.226;2023-06-14T10:19:29;98735.88;;;15.95;80.99
58018;BME280;43810;50.860;19.226;2023-06-14T10:22:04;98723.72;;;16.01;82.01
58018;BME280;43810;50.860;19.226;2023-06-14T10:24:45;98725.41;;;16.12;81.90
58018;BME280;43810;50.860;19.226;2023-06-14T10:27:14;98722.56;;;15.98;81.69
58018;BME280;43810;50.860;19.226;2023-06-14T10:32:24;98730.63;;;15.75;82.29
58018;BME280;43810;50.860;19.226;2023-06-14T10:34:58;98720.59;;;15.72;83.20
58018;BME280;43810;50.860;19.226;2023-06-14T10:37:24;98720.69;;;15.76;82.39
58018;BME280;43810;50.860;19.226;2023-06-14T10:39:50;98724.66;;;15.85;82.45
58018;BME280;43810;50.860;19.226;2023-06-14T10:42:16;98731.19;;;15.65;83.54
58018;BME280;43810;50.860;19.226;2023-06-14T10:44:45;98717.41;;;15.63;82.97
58018;BME280;43810;50.860;19.226;2023-06-14T10:47:30;98718.19;;;15.64;82.39
58018;BME280;43810;50.860;19.226;2023-06-14T10:52:29;98713.94;;;15.63;83.29
58018;BME280;43810;50.860;19.226;2023-06-14T10:55:12;98711.38;;;15.70;82.26
58018;BME280;43810;50.860;19.226;2023-06-14T10:57:51;98704.34;;;15.84;82.65
58018;BME280;43810;50.860;19.226;2023-06-14T11:00:19;98710.13;;;16.13;83.72
58018;BME280;43810;50.860;19.226;2023-06-14T11:05:48;98694.31;;;16.61;82.31
58018;BME280;43810;50.860;19.226;2023-06-14T11:08:33;98704.75;;;16.66;81.27
58018;BME280;43810;50.860;19.226;2023-06-14T11:11:08;98700.16;;;16.70;79.40
58018;BME280;43810;50.860;19.226;2023-06-14T11:13:39;98715.00;;;16.93;79.33
58018;BME280;43810;50.860;19.226;2023-06-14T11:16:13;98701.34;;;16.69;78.32
58018;BME280;43810;50.860;19.226;2023-06-14T11:18:39;98694.38;;;16.64;78.69
58018;BME280;43810;50.860;19.226;2023-06-14T11:21:05;98695.56;;;16.67;79.30
58018;BME280;43810;50.860;19.226;2023-06-14T11:23:32;98698.19;;;16.63;78.78
58018;BME280;43810;50.860;19.226;2023-06-14T11:25:57;98699.63;;;16.87;79.57
58018;BME280;43810;50.860;19.226;2023-06-14T11:28:23;98692.03;;;16.96;79.00
58018;BME280;43810;50.860;19.226;2023-06-14T11:30:59;98696.44;;;17.11;79.53
58018;BME280;43810;50.860;19.226;2023-06-14T11:33:25;98693.44;;;17.20;79.52
58018;BME280;43810;50.860;19.226;2023-06-14T11:35:51;98687.38;;;17.26;78.49
58018;BME280;43810;50.860;19.226;2023-06-14T11:38:18;98692.19;;;17.47;79.24
58018;BME280;43810;50.860;19.226;2023-06-14T11:40:43;98692.69;;;17.60;78.30
58018;BME280;43810;50.860;19.226;2023-06-14T11:43:09;98685.13;;;17.73;78.59
58018;BME280;43810;50.860;19.226;2023-06-14T11:45:35;98688.88;;;17.64;77.18
58018;BME280;43810;50.860;19.226;2023-06-14T11:48:01;98689.34;;;17.74;77.47
58018;BME280;43810;50.860;19.226;2023-06-14T11:50:27;98689.72;;;17.72;77.20
58018;BME280;43810;50.860;19.226;2023-06-14T11:52:58;98686.97;;;17.65;75.49
58018;BME280;43810;50.860;19.226;2023-06-14T11:55:25;98691.78;;;17.45;76.53
58018;BME280;43810;50.860;19.226;2023-06-14T11:57:53;98690.53;;;17.36;76.97
58018;BME280;43810;50.860;19.226;2023-06-14T12:00:25;98689.59;;;17.17;78.15
58018;BME280;43810;50.860;19.226;2023-06-14T12:02:55;98685.09;;;17.28;78.67
58018;BME280;43810;50.860;19.226;2023-06-14T12:05:25;98686.50;;;17.15;78.56
58018;BME280;43810;50.860;19.226;2023-06-14T12:07:58;98697.75;;;16.91;80.71
58018;BME280;43810;50.860;19.226;2023-06-14T12:10:26;98694.66;;;16.89;80.37
58018;BME280;43810;50.860;19.226;2023-06-14T12:12:57;98688.91;;;17.24;81.02
58018;BME280;43810;50.860;19.226;2023-06-14T12:15:23;98691.22;;;17.25;80.36
58018;BME280;43810;50.860;19.226;2023-06-14T12:17:49;98686.94;;;17.21;79.52
58018;BME280;43810;50.860;19.226;2023-06-14T12:20:16;98687.50;;;17.41;79.51
58018;BME280;43810;50.860;19.226;2023-06-14T12:23:02;98689.53;;;17.54;76.98
58018;BME280;43810;50.860;19.226;2023-06-14T12:25:30;98693.72;;;17.48;78.77
58018;BME280;43810;50.860;19.226;2023-06-14T12:28:06;98689.91;;;17.53;76.54
58018;BME280;43810;50.860;19.226;2023-06-14T12:30:32;98696.69;;;17.36;76.45
58018;BME280;43810;50.860;19.226;2023-06-14T12:32:58;98693.44;;;17.20;76.66
58018;BME280;43810;50.860;19.226;2023-06-14T12:35:24;98692.34;;;17.24;76.76
58018;BME280;43810;50.860;19.226;2023-06-14T12:37:50;98688.78;;;17.13;78.22
58018;BME280;43810;50.860;19.226;2023-06-14T12:40:16;98687.41;;;17.30;78.51
58018;BME280;43810;50.860;19.226;2023-06-14T12:42:42;98684.41;;;17.35;78.12
58018;BME280;43810;50.860;19.226;2023-06-14T12:45:08;98686.38;;;17.42;79.64
58018;BME280;43810;50.860;19.226;2023-06-14T12:47:34;98683.75;;;17.49;80.21
58018;BME280;43810;50.860;19.226;2023-06-14T12:50:00;98680.66;;;17.47;82.53
58018;BME280;43810;50.860;19.226;2023-06-14T12:52:26;98684.31;;;17.24;81.64
58018;BME280;43810;50.860;19.226;2023-06-14T12:54:52;98677.38;;;17.23;82.83
58018;BME280;43810;50.860;19.226;2023-06-14T12:57:18;98677.56;;;17.45;78.85
58018;BME280;43810;50.860;19.226;2023-06-14T12:59:43;98676.03;;;17.44;77.96
58018;BME280;43810;50.860;19.226;2023-06-14T13:02:11;98670.78;;;17.58;80.14
58018;BME280;43810;50.860;19.226;2023-06-14T13:04:37;98665.63;;;17.83;79.22
58018;BME280;43810;50.860;19.226;2023-06-14T13:07:04;98668.56;;;17.67;77.07